createdAt,value
2023-04-04T00:01:17.651Z,99819.63
2023-04-04T00:03:47.539Z,99813.85
2023-04-04T00:06:16.936Z,99813.61
2023-04-04T00:08:46.286Z,99812.80
2023-04-04T00:11:14.946Z,99812.05
2023-04-04T00:13:43.661Z,99809.02
2023-04-04T00:16:12.398Z,99801.26
2023-04-04T00:18:41.274Z,99800.61
2023-04-04T00:21:10.081Z,99797.73
2023-04-04T00:23:39.311Z,99797.63
2023-04-04T00:26:07.871Z,99794.71
2023-04-04T00:28:36.404Z,99793.70
2023-04-04T00:31:05.395Z,99790.99
2023-04-04T00:33:34.182Z,99787.95
2023-04-04T00:36:03.159Z,99786.23
2023-04-04T00:38:31.982Z,99785.46
2023-04-04T00:41:01.404Z,99782.65
2023-04-04T00:43:30.498Z,99781.98
2023-04-04T00:45:59.896Z,99778.88
2023-04-04T00:48:28.918Z,99780.56
2023-04-04T00:50:57.494Z,99776.08
2023-04-04T00:53:27.034Z,99773.85
2023-04-04T00:55:56.295Z,99773.96
2023-04-04T00:58:26.539Z,99772.16
2023-04-04T01:00:55.593Z,99765.88
2023-04-04T01:03:24.934Z,99767.08
2023-04-04T01:05:53.327Z,99766.36
2023-04-04T01:08:26.394Z,99762.73
2023-04-04T01:10:55.872Z,99761.60
2023-04-04T01:13:25.341Z,99759.35
2023-04-04T01:15:54.229Z,99760.59
2023-04-04T01:18:25.992Z,99762.58
2023-04-04T01:21:10.583Z,99755.81
2023-04-04T01:24:01.680Z,99751.66
2023-04-04T01:26:45.207Z,99753.05
2023-04-04T01:29:13.952Z,99751.14
2023-04-04T01:31:50.172Z,99747.98
2023-04-04T01:34:51.196Z,99750.23
2023-04-04T01:37:35.141Z,99745.55
2023-04-04T01:40:17.548Z,99747.01
2023-04-04T01:42:50.233Z,99746.43
2023-04-04T01:45:21.637Z,99743.31
2023-04-04T01:47:51.382Z,99739.66
2023-04-04T01:50:23.735Z,99736.76
2023-04-04T01:52:52.959Z,99739.18
2023-04-04T01:55:22.132Z,99737.98
2023-04-04T01:57:51.749Z,99734.90
2023-04-04T02:00:21.172Z,99736.60
2023-04-04T02:02:49.521Z,99733.52
2023-04-04T02:05:18.657Z,99732.16
2023-04-04T02:07:51.389Z,99736.15
2023-04-04T02:10:28.401Z,99731.70
2023-04-04T02:12:56.953Z,99730.83
2023-04-04T02:15:25.634Z,99730.02
2023-04-04T02:17:54.579Z,99730.20
2023-04-04T02:20:23.570Z,99726.51
2023-04-04T02:22:54.122Z,99728.27
2023-04-04T02:25:25.550Z,99731.11
2023-04-04T02:27:55.622Z,99732.10
2023-04-04T02:30:24.382Z,99730.27
2023-04-04T02:32:54.102Z,99730.41
2023-04-04T02:35:23.110Z,99729.63
2023-04-04T02:37:52.109Z,99726.75
2023-04-04T02:40:26.782Z,99723.36
2023-04-04T02:42:56.147Z,99728.27
2023-04-04T02:45:24.718Z,99733.71
2023-04-04T02:48:01.471Z,99730.27
2023-04-04T02:50:39.546Z,99730.86
2023-04-04T02:53:10.598Z,99731.05
2023-04-04T02:55:39.119Z,99727.84
2023-04-04T02:58:08.058Z,99736.13
2023-04-04T03:00:36.983Z,99737.66
2023-04-04T03:03:05.762Z,99735.84
2023-04-04T03:05:39.003Z,99738.94
2023-04-04T03:08:07.781Z,99736.17
2023-04-04T03:10:36.173Z,99738.98
2023-04-04T03:13:05.860Z,99739.66
2023-04-04T03:15:35.430Z,99735.33
2023-04-04T03:18:04.465Z,99732.42
2023-04-04T03:20:34.555Z,99731.24
2023-04-04T03:23:03.753Z,99726.71
2023-04-04T03:25:32.187Z,99728.56
2023-04-04T03:28:10.193Z,99731.67
2023-04-04T03:30:39.581Z,99729.60
2023-04-04T03:33:08.804Z,99729.86
2023-04-04T03:35:41.239Z,99729.16
2023-04-04T03:38:10.181Z,99727.73
2023-04-04T03:40:38.674Z,99732.55
2023-04-04T03:43:13.538Z,99729.75
2023-04-04T03:45:42.999Z,99730.79
2023-04-04T03:48:11.620Z,99727.42
2023-04-04T03:50:41.763Z,99725.70
2023-04-04T03:53:12.744Z,99722.27
2023-04-04T03:55:43.114Z,99721.92
2023-04-04T03:58:11.780Z,99722.92
2023-04-04T04:00:40.836Z,99720.66
2023-04-04T04:03:10.198Z,99722.11
2023-04-04T04:05:38.732Z,99725.53
2023-04-04T04:08:08.954Z,99723.04
2023-04-04T04:10:41.291Z,99724.74
2023-04-04T04:13:10.199Z,99725.69
2023-04-04T04:15:39.086Z,99721.73
2023-04-04T04:18:09.890Z,99724.58
2023-04-04T04:20:38.410Z,99723.27
2023-04-04T04:23:07.276Z,99726.07
2023-04-04T04:25:36.263Z,99726.66
2023-04-04T04:28:18.030Z,99726.08
2023-04-04T04:30:47.584Z,99725.15
2023-04-04T04:33:19.738Z,99723.34
2023-04-04T04:36:02.207Z,99719.52
2023-04-04T04:38:34.825Z,99722.05
2023-04-04T04:41:05.159Z,99721.04
2023-04-04T04:43:41.721Z,99718.36
2023-04-04T04:46:11.569Z,99720.68
2023-04-04T04:48:40.227Z,99718.66
2023-04-04T04:51:09.089Z,99720.09
2023-04-04T04:53:43.333Z,99724.91
2023-04-04T04:56:12.121Z,99728.63
2023-04-04T04:58:42.865Z,99724.45
2023-04-04T05:01:12.831Z,99726.30
2023-04-04T05:03:41.634Z,99727.68
2023-04-04T05:06:12.765Z,99732.95
2023-04-04T05:08:42.397Z,99735.50
2023-04-04T05:11:21.951Z,99733.12
2023-04-04T05:13:51.036Z,99737.02
2023-04-04T05:16:20.894Z,99737.53
2023-04-04T05:18:50.653Z,99739.02
2023-04-04T05:21:21.001Z,99738.81
2023-04-04T05:23:50.771Z,99738.09
2023-04-04T05:26:20.013Z,99740.45
2023-04-04T05:28:51.262Z,99741.77
2023-04-04T05:31:21.603Z,99739.84
2023-04-04T05:33:51.584Z,99740.08
2023-04-04T05:36:30.820Z,99741.20
2023-04-04T05:39:06.377Z,99743.73
2023-04-04T05:41:39.029Z,99742.27
2023-04-04T05:44:14.365Z,99744.54
2023-04-04T05:46:43.292Z,99745.27
2023-04-04T05:49:12.118Z,99748.85
2023-04-04T05:51:43.639Z,99749.74
2023-04-04T05:54:14.872Z,99749.20
2023-04-04T05:56:43.947Z,99751.58
2023-04-04T05:59:19.340Z,99746.47
2023-04-04T06:01:56.348Z,99747.14
2023-04-04T06:04:25.802Z,99744.45
2023-04-04T06:06:56.138Z,99749.48
2023-04-04T06:09:25.155Z,99750.55
2023-04-04T06:11:54.311Z,99749.90
2023-04-04T06:14:23.671Z,99753.23
2023-04-04T06:16:52.930Z,99749.80
2023-04-04T06:19:22.171Z,99750.49
2023-04-04T06:21:50.742Z,99750.70
2023-04-04T06:24:19.775Z,99747.91
2023-04-04T06:26:52.193Z,99745.90
2023-04-04T06:29:24.726Z,99746.87
2023-04-04T06:31:53.784Z,99747.39
2023-04-04T06:34:30.740Z,99748.48
2023-04-04T06:37:01.801Z,99746.70
2023-04-04T06:39:34.747Z,99744.92
2023-04-04T06:42:07.544Z,99740.91
2023-04-04T06:44:37.924Z,99742.79
2023-04-04T06:47:06.786Z,99747.36
2023-04-04T06:49:36.384Z,99745.23
2023-04-04T06:52:05.770Z,99746.48
2023-04-04T06:54:34.468Z,99750.86
2023-04-04T06:57:03.426Z,99747.31
2023-04-04T06:59:31.936Z,99742.65
2023-04-04T07:02:00.852Z,99741.31
2023-04-04T07:04:33.313Z,99740.25
2023-04-04T07:07:02.140Z,99742.00
2023-04-04T07:09:31.267Z,99742.57
2023-04-04T07:11:59.863Z,99747.02
2023-04-04T07:14:28.347Z,99753.20
2023-04-04T07:16:58.517Z,99751.48
2023-04-04T07:19:29.524Z,99754.11
2023-04-04T07:21:58.496Z,99754.50
2023-04-04T07:24:26.940Z,99755.80
2023-04-04T07:26:55.747Z,99758.05
2023-04-04T07:29:24.756Z,99754.25
2023-04-04T07:31:53.251Z,99755.05
2023-04-04T07:34:22.681Z,99754.11
2023-04-04T07:36:52.153Z,99756.98
2023-04-04T07:39:20.652Z,99753.73
2023-04-04T07:41:49.277Z,99748.84
2023-04-04T07:44:18.420Z,99749.29
2023-04-04T07:46:49.862Z,99748.36
2023-04-04T07:49:25.119Z,99751.20
2023-04-04T07:51:53.516Z,99753.14
2023-04-04T07:54:24.946Z,99751.43
2023-04-04T07:57:21.091Z,99748.60
2023-04-04T07:59:58.433Z,99750.12
2023-04-04T08:02:27.755Z,99751.69
2023-04-04T08:04:56.567Z,99752.11
2023-04-04T08:07:25.577Z,99755.43
2023-04-04T08:09:54.958Z,99763.69
2023-04-04T08:12:23.820Z,99755.98
2023-04-04T08:14:53.614Z,99750.58
2023-04-04T08:17:23.564Z,99753.29
2023-04-04T08:19:52.480Z,99750.25
2023-04-04T08:22:20.942Z,99751.16
2023-04-04T08:24:50.492Z,99750.77
2023-04-04T08:27:18.998Z,99750.95
2023-04-04T08:29:48.384Z,99741.27
2023-04-04T08:32:17.395Z,99737.98
2023-04-04T08:34:46.121Z,99741.47
2023-04-04T08:37:15.081Z,99744.21
2023-04-04T08:39:44.619Z,99741.64
2023-04-04T08:42:17.174Z,99739.09
2023-04-04T08:44:48.356Z,99738.63
2023-04-04T08:47:17.379Z,99744.17
2023-04-04T08:49:48.257Z,99744.27
2023-04-04T08:52:21.331Z,99744.31
2023-04-04T08:54:52.164Z,99744.77
2023-04-04T08:57:21.320Z,99740.31
2023-04-04T08:59:50.463Z,99741.37
2023-04-04T09:03:17.991Z,99744.98
2023-04-04T09:05:48.015Z,99732.45
2023-04-04T09:08:18.554Z,99733.98
2023-04-04T09:10:48.519Z,99726.02
2023-04-04T09:13:17.262Z,99724.80
2023-04-04T09:15:52.777Z,99722.91
2023-04-04T09:18:21.778Z,99720.83
2023-04-04T09:20:50.808Z,99723.83
2023-04-04T09:23:21.801Z,99720.16
2023-04-04T09:28:26.493Z,99720.09
2023-04-04T09:30:55.425Z,99710.75
2023-04-04T09:33:24.965Z,99708.40
2023-04-04T09:36:06.560Z,99712.46
2023-04-04T09:38:38.910Z,99710.55
2023-04-04T09:41:10.222Z,99717.89
2023-04-04T09:43:40.204Z,99717.75
2023-04-04T09:46:08.784Z,99722.50
2023-04-04T09:48:37.983Z,99724.93
2023-04-04T09:51:08.032Z,99725.33
2023-04-04T09:53:43.138Z,99724.27
2023-04-04T09:56:11.894Z,99722.75
2023-04-04T09:58:49.481Z,99724.06
2023-04-04T10:01:26.120Z,99730.27
2023-04-04T10:03:55.750Z,99726.42
2023-04-04T10:06:24.478Z,99731.34
2023-04-04T10:08:53.726Z,99729.23
2023-04-04T10:11:33.906Z,99725.82
2023-04-04T10:14:04.292Z,99724.77
2023-04-04T10:16:35.232Z,99724.17
2023-04-04T10:19:08.163Z,99722.73
2023-04-04T10:21:37.523Z,99719.05
2023-04-04T10:24:10.445Z,99718.55
2023-04-04T10:26:39.231Z,99722.64
2023-04-04T10:29:07.822Z,99716.23
2023-04-04T10:31:41.767Z,99717.13
2023-04-04T10:34:20.798Z,99717.98
2023-04-04T10:36:54.588Z,99713.67
2023-04-04T10:39:33.034Z,99705.73
2023-04-04T10:42:05.807Z,99702.33
2023-04-04T10:44:36.466Z,99702.09
2023-04-04T10:47:26.775Z,99701.56
2023-04-04T10:49:56.365Z,99696.66
2023-04-04T10:52:28.380Z,99701.14
2023-04-04T10:55:04.589Z,99702.45
2023-04-04T10:57:37.122Z,99703.66
2023-04-04T11:00:09.161Z,99700.21
2023-04-04T11:02:53.410Z,99700.30
2023-04-04T11:05:34.242Z,99700.34
2023-04-04T11:08:08.822Z,99700.65
2023-04-04T11:10:52.453Z,99701.23
2023-04-04T11:13:28.121Z,99703.39
2023-04-04T11:15:58.360Z,99702.91
2023-04-04T11:18:34.214Z,99698.38
2023-04-04T11:21:05.770Z,99695.23
2023-04-04T11:23:50.303Z,99692.88
2023-04-04T11:26:35.705Z,99688.86
2023-04-04T11:29:08.345Z,99684.45
2023-04-04T11:31:43.387Z,99688.01
2023-04-04T11:34:14.091Z,99685.03
2023-04-04T11:36:45.335Z,99688.07
2023-04-04T11:39:17.304Z,99681.17
2023-04-04T11:41:53.450Z,99675.68
2023-04-04T11:44:24.305Z,99673.85
2023-04-04T11:47:07.003Z,99672.20
2023-04-04T11:49:38.548Z,99672.34
2023-04-04T11:52:17.314Z,99668.85
2023-04-04T11:54:52.098Z,99667.52
2023-04-04T11:57:22.221Z,99665.30
2023-04-04T11:59:55.066Z,99670.52
2023-04-04T12:02:33.686Z,99671.65
2023-04-04T12:05:03.736Z,99674.91
2023-04-04T12:07:33.155Z,99671.28
2023-04-04T12:10:02.169Z,99669.77
2023-04-04T12:13:00.715Z,99669.73
2023-04-04T12:15:30.237Z,99665.83
2023-04-04T12:17:58.791Z,99669.33
2023-04-04T12:20:27.728Z,99663.78
2023-04-04T12:22:56.696Z,99669.55
2023-04-04T12:25:28.858Z,99667.70
2023-04-04T12:27:58.048Z,99669.27
2023-04-04T12:30:26.780Z,99666.54
2023-04-04T12:32:55.830Z,99667.95
2023-04-04T12:35:25.128Z,99665.88
2023-04-04T12:38:08.872Z,99661.30
2023-04-04T12:40:39.049Z,99655.08
2023-04-04T12:43:09.952Z,99651.94
2023-04-04T12:45:43.562Z,99647.52
2023-04-04T12:48:18.279Z,99639.30
2023-04-04T12:51:00.963Z,99639.46
2023-04-04T12:53:30.840Z,99641.26
2023-04-04T12:56:05.260Z,99640.45
2023-04-04T12:58:36.226Z,99641.52
2023-04-04T13:01:07.408Z,99643.31
2023-04-04T13:03:38.326Z,99641.42
2023-04-04T13:06:16.783Z,99642.83
2023-04-04T13:08:56.118Z,99637.44
2023-04-04T13:11:25.366Z,99632.92
2023-04-04T13:14:04.432Z,99630.66
2023-04-04T13:16:37.415Z,99629.42
2023-04-04T13:19:06.523Z,99626.77
2023-04-04T13:21:35.393Z,99621.73
2023-04-04T13:24:04.286Z,99623.16
2023-04-04T13:26:33.508Z,99620.73
2023-04-04T13:29:02.006Z,99616.74
2023-04-04T13:31:30.628Z,99619.96
2023-04-04T13:34:00.189Z,99627.83
2023-04-04T13:36:29.075Z,99627.63
2023-04-04T13:38:57.693Z,99624.23
2023-04-04T13:41:26.675Z,99624.75
2023-04-04T13:43:56.835Z,99627.41
2023-04-04T13:46:25.693Z,99627.88
2023-04-04T13:48:54.790Z,99625.14
2023-04-04T13:51:24.736Z,99620.04
2023-04-04T13:53:53.248Z,99619.93
2023-04-04T13:56:23.588Z,99619.08
2023-04-04T13:58:54.249Z,99616.77
2023-04-04T14:01:23.773Z,99615.23
2023-04-04T14:03:52.396Z,99608.44
2023-04-04T14:06:23.353Z,99607.27
2023-04-04T14:08:53.882Z,99608.02
2023-04-04T14:11:23.512Z,99606.97
2023-04-04T14:13:55.583Z,99607.44
2023-04-04T14:16:24.442Z,99610.76
2023-04-04T14:18:52.897Z,99611.55
2023-04-04T14:21:21.820Z,99609.39
2023-04-04T14:23:50.772Z,99606.19
2023-04-04T14:26:19.258Z,99608.67
2023-04-04T14:28:49.012Z,99608.19
2023-04-04T14:31:18.107Z,99607.28
2023-04-04T14:33:46.677Z,99606.02
2023-04-04T14:36:16.329Z,99605.13
2023-04-04T14:38:45.549Z,99603.77
2023-04-04T14:41:14.097Z,99605.75
2023-04-04T14:43:43.903Z,99608.40
2023-04-04T14:46:12.944Z,99606.48
2023-04-04T14:48:41.368Z,99603.45
2023-04-04T14:51:10.071Z,99603.13
2023-04-04T14:53:39.361Z,99604.48
2023-04-04T14:56:08.088Z,99602.21
2023-04-04T14:58:36.675Z,99601.71
2023-04-04T15:01:06.223Z,99596.30
2023-04-04T15:03:35.327Z,99596.57
2023-04-04T15:06:04.339Z,99595.95
2023-04-04T15:08:33.442Z,99593.52
2023-04-04T15:11:03.350Z,99592.72
2023-04-04T15:13:32.089Z,99596.24
2023-04-04T15:16:02.333Z,99592.02
2023-04-04T15:18:31.299Z,99590.23
2023-04-04T15:21:00.096Z,99588.83
2023-04-04T15:23:28.950Z,99583.09
2023-04-04T15:25:58.466Z,99588.98
2023-04-04T15:28:27.729Z,99587.05
2023-04-04T15:30:57.116Z,99584.48
2023-04-04T15:33:25.889Z,99579.92
2023-04-04T15:35:54.625Z,99579.85
2023-04-04T15:38:23.925Z,99574.48
2023-04-04T15:40:52.562Z,99573.94
2023-04-04T15:43:21.199Z,99579.69
2023-04-04T15:45:50.073Z,99575.76
2023-04-04T15:48:18.557Z,99578.40
2023-04-04T15:50:47.529Z,99577.55
2023-04-04T15:53:16.211Z,99577.89
2023-04-04T15:55:44.768Z,99578.98
2023-04-04T15:58:13.718Z,99576.56
2023-04-04T16:00:47.289Z,99573.81
2023-04-04T16:03:16.630Z,99573.94
2023-04-04T16:05:45.814Z,99574.76
2023-04-04T16:08:15.124Z,99572.86
2023-04-04T16:10:44.965Z,99573.23
2023-04-04T16:13:14.269Z,99569.41
2023-04-04T16:15:42.956Z,99569.86
2023-04-04T16:18:12.046Z,99566.75
2023-04-04T16:20:41.337Z,99569.84
2023-04-04T16:23:10.370Z,99566.44
2023-04-04T16:25:39.442Z,99562.70
2023-04-04T16:28:07.943Z,99562.82
2023-04-04T16:30:36.759Z,99564.65
2023-04-04T16:33:07.506Z,99560.11
2023-04-04T16:35:37.629Z,99561.56
2023-04-04T16:38:06.608Z,99557.14
2023-04-04T16:40:36.468Z,99551.81
2023-04-04T16:43:05.001Z,99550.20
2023-04-04T16:45:33.765Z,99546.59
2023-04-04T16:48:03.000Z,99545.60
2023-04-04T16:50:31.622Z,99543.52
2023-04-04T16:53:00.766Z,99544.45
2023-04-04T16:55:29.944Z,99543.75
2023-04-04T16:57:58.899Z,99541.64
2023-04-04T17:00:27.978Z,99538.41
2023-04-04T17:03:20.307Z,99537.39
2023-04-04T17:06:07.001Z,99542.91
2023-04-04T17:08:58.125Z,99539.67
2023-04-04T17:11:49.381Z,99535.88
2023-04-04T17:14:43.107Z,99533.36
2023-04-04T17:17:47.895Z,99532.40
2023-04-04T17:24:11.552Z,99525.05
2023-04-04T17:27:07.190Z,99526.27
2023-04-04T17:29:55.400Z,99525.34
2023-04-04T17:32:54.521Z,99530.36
2023-04-04T17:35:39.258Z,99523.97
2023-04-04T17:38:29.663Z,99527.11
2023-04-04T17:41:15.782Z,99524.91
2023-04-04T17:44:05.981Z,99526.34
2023-04-04T17:46:40.457Z,99522.41
2023-04-04T17:49:09.840Z,99525.39
2023-04-04T17:51:39.069Z,99527.58
2023-04-04T17:54:08.736Z,99530.29
2023-04-04T17:56:38.750Z,99529.77
2023-04-04T17:59:08.015Z,99533.42
2023-04-04T18:01:39.040Z,99530.61
2023-04-04T18:04:08.923Z,99532.86
2023-04-04T18:06:40.504Z,99534.21
2023-04-04T18:09:10.981Z,99532.77
2023-04-04T18:11:40.101Z,99534.97
2023-04-04T18:14:09.241Z,99533.01
2023-04-04T18:16:40.778Z,99531.56
2023-04-04T18:19:11.327Z,99532.02
2023-04-04T18:21:40.470Z,99530.23
2023-04-04T18:24:11.584Z,99530.16
2023-04-04T18:26:41.250Z,99532.05
2023-04-04T18:29:12.727Z,99529.83
2023-04-04T18:31:42.115Z,99528.64
2023-04-04T18:34:10.672Z,99532.08
2023-04-04T18:36:40.502Z,99530.23
2023-04-04T18:39:09.956Z,99529.80
2023-04-04T18:41:38.486Z,99528.71
2023-04-04T18:44:07.057Z,99527.69
2023-04-04T18:46:36.736Z,99522.94
2023-04-04T18:49:06.019Z,99525.26
2023-04-04T18:51:35.277Z,99526.54
2023-04-04T18:54:04.825Z,99524.84
2023-04-04T18:56:33.277Z,99528.75
2023-04-04T18:59:02.521Z,99529.85
2023-04-04T19:01:31.954Z,99529.07
2023-04-04T19:04:04.067Z,99529.27
2023-04-04T19:06:33.711Z,99528.91
2023-04-04T19:09:04.693Z,99527.88
2023-04-04T19:11:33.769Z,99528.04
2023-04-04T19:14:02.767Z,99529.14
2023-04-04T19:16:32.184Z,99527.07
2023-04-04T19:19:09.475Z,99526.01
2023-04-04T19:21:39.060Z,99526.08
2023-04-04T19:24:08.508Z,99523.86
2023-04-04T19:26:37.604Z,99523.35
2023-04-04T19:29:06.619Z,99522.52
2023-04-04T19:31:36.216Z,99518.52
2023-04-04T19:34:09.114Z,99517.48
2023-04-04T19:36:38.385Z,99515.65
2023-04-04T19:39:10.974Z,99512.96
2023-04-04T19:41:41.206Z,99515.73
2023-04-04T19:44:20.223Z,99513.63
2023-04-04T19:46:49.993Z,99514.89
2023-04-04T19:49:19.566Z,99516.08
2023-04-04T19:51:59.651Z,99516.40
2023-04-04T19:54:30.521Z,99521.92
2023-04-04T19:57:02.936Z,99514.74
2023-04-04T20:00:13.699Z,99513.80
2023-04-04T20:02:53.021Z,99508.39
2023-04-04T20:05:47.322Z,99505.90
2023-04-04T20:08:16.992Z,99505.05
2023-04-04T20:10:45.917Z,99499.27
2023-04-04T20:13:14.462Z,99500.27
2023-04-04T20:15:50.113Z,99497.00
2023-04-04T20:18:27.522Z,99495.63
2023-04-04T20:21:01.608Z,99496.31
2023-04-04T20:23:32.575Z,99500.42
2023-04-04T20:26:07.078Z,99496.54
2023-04-04T20:28:36.707Z,99496.03
2023-04-04T20:31:10.176Z,99492.93
2023-04-04T20:33:41.069Z,99494.41
2023-04-04T20:36:31.377Z,99489.17
2023-04-04T20:39:00.787Z,99489.89
2023-04-04T20:41:29.374Z,99488.50
2023-04-04T20:44:00.342Z,99489.01
2023-04-04T20:46:35.394Z,99487.23
2023-04-04T20:49:05.545Z,99486.97
2023-04-04T20:51:34.838Z,99484.16
2023-04-04T20:54:04.434Z,99485.02
2023-04-04T20:56:39.042Z,99485.36
2023-04-04T20:59:28.328Z,99485.77
2023-04-04T21:02:20.434Z,99483.61
2023-04-04T21:04:52.238Z,99480.42
2023-04-04T21:07:41.344Z,99479.07
2023-04-04T21:10:22.470Z,99476.24
2023-04-04T21:12:52.563Z,99478.42
2023-04-04T21:15:35.919Z,99480.98
2023-04-04T21:18:10.322Z,99478.58
2023-04-04T21:20:47.840Z,99477.63
2023-04-04T21:23:26.026Z,99477.90
2023-04-04T21:26:07.849Z,99477.38
2023-04-04T21:28:43.489Z,99474.27
2023-04-04T21:31:18.156Z,99471.77
2023-04-04T21:33:49.401Z,99467.34
2023-04-04T21:36:27.948Z,99466.51
2023-04-04T21:39:01.495Z,99469.61
2023-04-04T21:41:32.042Z,99469.34
2023-04-04T21:44:03.206Z,99466.73
2023-04-04T21:46:37.789Z,99459.36
2023-04-04T21:49:08.293Z,99460.29
2023-04-04T21:51:37.684Z,99456.95
2023-04-04T21:54:06.541Z,99458.59
2023-04-04T21:56:35.795Z,99460.98
2023-04-04T21:59:06.649Z,99461.77
2023-04-04T22:01:36.862Z,99463.07
2023-04-04T22:04:06.010Z,99457.61
2023-04-04T22:06:34.479Z,99459.10
2023-04-04T22:09:04.452Z,99460.65
2023-04-04T22:11:35.113Z,99457.73
2023-04-04T22:14:04.024Z,99453.38
2023-04-04T22:16:37.389Z,99451.35
2023-04-04T22:19:07.772Z,99447.96
2023-04-04T22:21:37.247Z,99441.88
2023-04-04T22:24:06.691Z,99444.52
2023-04-04T22:26:35.670Z,99443.13
2023-04-04T22:29:05.543Z,99444.05
2023-04-04T22:31:38.105Z,99442.76
2023-04-04T22:34:07.140Z,99441.63
2023-04-04T22:36:35.744Z,99442.74
2023-04-04T22:39:04.667Z,99444.55
2023-04-04T22:41:33.675Z,99442.20
2023-04-04T22:44:02.109Z,99444.80
2023-04-04T22:46:32.829Z,99441.89
2023-04-04T22:49:08.965Z,99439.68
2023-04-04T22:51:45.957Z,99440.52
2023-04-04T22:54:16.402Z,99439.49
2023-04-04T22:56:46.857Z,99438.50
2023-04-04T22:59:15.663Z,99437.27
2023-04-04T23:01:44.691Z,99435.46
2023-04-04T23:04:13.671Z,99431.44
2023-04-04T23:06:43.389Z,99424.15
2023-04-04T23:09:12.553Z,99426.54
2023-04-04T23:11:41.656Z,99426.17
2023-04-04T23:14:15.541Z,99420.99
2023-04-04T23:16:45.168Z,99416.35
2023-04-04T23:19:13.861Z,99415.47
2023-04-04T23:21:42.410Z,99410.91
2023-04-04T23:24:11.748Z,99409.65
2023-04-04T23:26:40.558Z,99408.52
2023-04-04T23:29:10.183Z,99402.34
2023-04-04T23:31:39.344Z,99399.31
2023-04-04T23:34:08.300Z,99401.31
2023-04-04T23:36:36.746Z,99402.98
2023-04-04T23:39:06.094Z,99401.81
2023-04-04T23:41:34.913Z,99397.46
2023-04-04T23:44:03.435Z,99395.64
2023-04-04T23:46:34.754Z,99393.48
2023-04-04T23:49:03.635Z,99395.88
2023-04-04T23:51:38.773Z,99393.34
2023-04-04T23:54:09.197Z,99393.34
2023-04-04T23:56:37.982Z,99391.88
2023-04-04T23:59:07.641Z,99395.89
